X  Stänga Metar väderdata för luftfart     ESNL Lycksele Airport
Temperatur
11°C Temperatur
9°C Daggpunkt
88% Fuktighet



Vind
2 M/S
5 MPH
8 KM/T
4 KTS



260°
V
Nuvarande omständigheter

Molnigt Molnigt
Tryck 1015.92 (hPa) - 30 (inHg)
Synlighet 6 (mil) - 9.7 (km)
Flygplats
Flygplatskod ESNL

Plats: Lycksele Airport
Distans: 35 (km)

Metar:
ESNL 130150Z AUTO 26004KT 9999 OVC041/// 11/09 Q1016

Tid: 13-07-2024 03:50 CEST